createdAt,value
2022-11-19T00:02:40.805Z,16.20
2022-11-19T00:07:44.533Z,15.80
2022-11-19T00:12:55.447Z,19.67
2022-11-19T00:17:59.334Z,19.95
2022-11-19T00:23:03.412Z,17.35
2022-11-19T00:28:08.523Z,17.65
2022-11-19T00:33:12.317Z,21.63
2022-11-19T00:38:15.971Z,18.75
2022-11-19T00:43:38.778Z,19.98
2022-11-19T00:48:42.588Z,20.77
2022-11-19T00:53:46.706Z,26.27
2022-11-19T00:58:52.257Z,22.65
2022-11-19T01:03:56.222Z,21.52
2022-11-19T01:09:00.210Z,17.73
2022-11-19T01:14:06.952Z,20.60
2022-11-19T01:19:12.345Z,18.10
2022-11-19T01:24:15.986Z,16.05
2022-11-19T01:29:21.132Z,15.25
2022-11-19T01:34:24.949Z,13.77
2022-11-19T01:39:28.914Z,10.90
2022-11-19T01:45:01.360Z,14.40
2022-11-19T01:50:05.624Z,15.73
2022-11-19T01:55:10.760Z,14.73
2022-11-19T02:00:17.250Z,16.50
2022-11-19T02:05:21.599Z,17.92
2022-11-19T02:10:45.784Z,17.25
2022-11-19T02:15:57.476Z,18.02
2022-11-19T02:21:12.665Z,16.08
2022-11-19T02:27:00.912Z,18.42
2022-11-19T02:32:14.742Z,18.10
2022-11-19T02:37:26.940Z,18.98
2022-11-19T02:42:36.160Z,16.23
2022-11-19T02:47:45.072Z,14.80
2022-11-19T02:52:49.553Z,14.50
2022-11-19T02:57:59.685Z,16.75
2022-11-19T03:03:27.733Z,16.73
2022-11-19T03:08:31.436Z,14.85
2022-11-19T03:14:04.946Z,18.05
2022-11-19T03:19:15.460Z,13.18
2022-11-19T03:24:24.291Z,13.63
2022-11-19T03:29:30.532Z,9.75
2022-11-19T03:34:37.249Z,13.93
2022-11-19T03:39:43.280Z,10.68
2022-11-19T03:44:51.815Z,12.77
2022-11-19T03:50:02.405Z,12.25
2022-11-19T03:55:06.532Z,11.73
2022-11-19T04:00:11.414Z,12.30
2022-11-19T04:05:20.150Z,13.60
2022-11-19T04:10:23.783Z,14.13
2022-11-19T04:15:27.746Z,16.38
2022-11-19T04:20:32.746Z,15.82
2022-11-19T04:25:36.390Z,14.23
2022-11-19T04:30:39.976Z,14.38
2022-11-19T04:35:47.331Z,15.32
2022-11-19T04:40:50.964Z,14.95
2022-11-19T04:45:54.554Z,19.17
2022-11-19T04:50:59.617Z,15.70
2022-11-19T04:56:03.263Z,16.10
2022-11-19T05:01:07.252Z,17.90
2022-11-19T05:06:12.337Z,19.55
2022-11-19T05:11:16.059Z,20.88
2022-11-19T05:16:19.689Z,19.08
2022-11-19T05:21:24.679Z,18.00
2022-11-19T05:26:28.393Z,20.98
2022-11-19T05:31:32.123Z,22.42
2022-11-19T05:36:37.170Z,19.25
2022-11-19T05:41:40.849Z,21.17
2022-11-19T05:46:44.486Z,21.52
2022-11-19T05:51:49.555Z,23.60
2022-11-19T05:56:53.212Z,24.23
2022-11-19T06:01:56.836Z,24.08
2022-11-19T06:07:01.954Z,25.25
2022-11-19T06:12:06.197Z,23.05
2022-11-19T06:17:09.872Z,25.80
2022-11-19T06:22:14.867Z,24.20
2022-11-19T06:27:18.650Z,24.88
2022-11-19T06:32:22.345Z,25.10
2022-11-19T06:37:27.376Z,24.60
2022-11-19T06:42:39.794Z,25.48
2022-11-19T06:47:43.706Z,23.33
2022-11-19T06:52:48.725Z,25.17
2022-11-19T06:57:52.452Z,25.80
2022-11-19T07:02:56.179Z,26.83
2022-11-19T07:08:03.258Z,23.63
2022-11-19T07:13:07.356Z,26.40
2022-11-19T07:18:11.598Z,28.92
2022-11-19T07:23:16.698Z,26.95
2022-11-19T07:28:20.369Z,28.48
2022-11-19T07:33:24.030Z,27.95
2022-11-19T07:38:32.765Z,32.42
2022-11-19T07:43:39.378Z,28.60
2022-11-19T07:48:42.986Z,29.65
2022-11-19T07:53:48.073Z,29.67
2022-11-19T07:58:51.863Z,32.90
2022-11-19T08:03:56.833Z,30.55
2022-11-19T08:09:03.384Z,29.92
2022-11-19T08:14:07.311Z,31.47
2022-11-19T08:19:13.990Z,32.17
2022-11-19T08:24:21.436Z,32.20
2022-11-19T08:29:25.391Z,32.95
2022-11-19T08:34:29.266Z,33.38
2022-11-19T08:39:34.546Z,39.13
2022-11-19T08:44:38.322Z,35.15
2022-11-19T08:49:41.999Z,38.05
2022-11-19T08:54:46.964Z,31.30
2022-11-19T08:59:52.168Z,34.42
2022-11-19T09:04:55.922Z,32.38
2022-11-19T09:10:01.026Z,29.75
2022-11-19T09:15:05.260Z,35.38
2022-11-19T09:20:10.050Z,35.72
2022-11-19T09:25:15.274Z,32.58
2022-11-19T09:30:18.960Z,35.78
2022-11-19T09:35:22.710Z,32.70
2022-11-19T09:40:28.010Z,40.67
2022-11-19T09:45:45.560Z,30.02
2022-11-19T09:50:54.417Z,34.55
2022-11-19T09:56:01.134Z,28.98
2022-11-19T10:01:05.180Z,31.00
2022-11-19T10:06:24.453Z,29.80
2022-11-19T10:11:41.052Z,30.35
2022-11-19T10:17:01.305Z,29.98
2022-11-19T10:22:11.223Z,29.42
2022-11-19T10:27:29.662Z,29.50
2022-11-19T10:32:36.779Z,26.35
2022-11-19T10:42:50.739Z,31.92
2022-11-19T10:48:08.938Z,28.08
2022-11-19T10:53:17.527Z,32.45
2022-11-19T10:58:27.075Z,33.85
2022-11-19T11:03:35.628Z,28.50
2022-11-19T11:08:49.685Z,32.47
2022-11-19T11:14:12.548Z,28.65
2022-11-19T11:19:18.978Z,30.70
2022-11-19T11:24:31.228Z,25.42
2022-11-19T11:29:36.337Z,30.48
2022-11-19T11:34:44.197Z,24.65
2022-11-19T11:39:51.596Z,30.63
2022-11-19T11:44:58.943Z,25.60
2022-11-19T11:50:09.298Z,29.20
2022-11-19T11:55:15.903Z,28.17
2022-11-19T12:00:38.706Z,28.52
2022-11-19T12:05:52.297Z,26.15
2022-11-19T12:11:01.829Z,26.17
2022-11-19T12:16:12.132Z,23.40
2022-11-19T12:21:29.223Z,26.67
2022-11-19T12:26:42.592Z,25.55
2022-11-19T12:32:01.494Z,26.33
2022-11-19T12:37:21.006Z,25.45
2022-11-19T12:42:43.409Z,26.77
2022-11-19T12:48:05.774Z,22.45
2022-11-19T12:53:45.046Z,23.13
2022-11-19T12:58:58.819Z,26.30
2022-11-19T13:04:11.638Z,18.40
2022-11-19T13:09:19.677Z,20.40
2022-11-19T13:14:34.920Z,18.63
2022-11-19T13:19:41.232Z,19.15
2022-11-19T13:24:47.846Z,24.50
2022-11-19T13:29:56.106Z,18.58
2022-11-19T13:35:13.136Z,18.05
2022-11-19T13:40:26.764Z,19.48
2022-11-19T13:45:31.359Z,18.55
2022-11-19T13:50:43.860Z,18.05
2022-11-19T13:55:48.676Z,18.67
2022-11-19T14:01:36.153Z,20.13
2022-11-19T14:06:54.619Z,16.90
2022-11-19T14:12:23.167Z,20.73
2022-11-19T14:17:54.941Z,19.83
2022-11-19T14:23:17.615Z,19.38
2022-11-19T14:28:47.123Z,17.77
2022-11-19T14:34:04.221Z,15.60
2022-11-19T14:39:18.527Z,15.32
2022-11-19T14:44:36.086Z,25.63
2022-11-19T14:49:41.207Z,20.10
2022-11-19T14:54:46.800Z,21.33
2022-11-19T14:59:53.851Z,24.35
2022-11-19T15:10:30.292Z,20.20
2022-11-19T15:15:41.890Z,40.95
2022-11-19T15:21:04.555Z,21.63
2022-11-19T15:26:20.318Z,14.75
2022-11-19T15:31:41.573Z,17.13
2022-11-19T15:36:47.783Z,22.98
2022-11-19T15:42:02.587Z,19.83
2022-11-19T15:47:12.815Z,20.73
2022-11-19T15:52:22.967Z,19.13
2022-11-19T15:57:28.579Z,16.25
2022-11-19T16:02:37.642Z,19.90
2022-11-19T16:07:41.835Z,17.27
2022-11-19T16:13:14.133Z,15.93
2022-11-19T16:18:20.445Z,15.43
2022-11-19T16:23:25.740Z,13.07
2022-11-19T16:28:31.510Z,14.70
2022-11-19T16:33:35.964Z,16.77
2022-11-19T16:38:41.971Z,14.15
2022-11-19T16:43:48.966Z,18.27
2022-11-19T16:54:01.269Z,13.18
2022-11-19T16:59:07.398Z,16.25
2022-11-19T17:04:15.625Z,12.63
2022-11-19T17:09:33.223Z,14.32
2022-11-19T17:15:00.551Z,15.55
2022-11-19T17:20:04.900Z,14.73
2022-11-19T17:25:14.755Z,13.05
2022-11-19T17:30:25.249Z,19.50
2022-11-19T17:35:34.337Z,20.55
2022-11-19T17:40:38.089Z,19.77
2022-11-19T17:45:43.114Z,17.77
2022-11-19T17:50:46.737Z,16.40
2022-11-19T17:55:52.699Z,18.02
2022-11-19T18:00:57.696Z,12.55
2022-11-19T18:06:02.457Z,15.52
2022-11-19T18:11:07.145Z,19.35
2022-11-19T18:16:14.949Z,17.73
2022-11-19T18:21:20.618Z,18.55
2022-11-19T18:26:24.830Z,16.73
2022-11-19T18:31:30.039Z,11.50
2022-11-19T18:36:33.733Z,11.27
2022-11-19T18:41:37.663Z,11.70
2022-11-19T18:46:42.761Z,13.30
2022-11-19T18:51:47.615Z,28.08
2022-11-19T18:56:51.338Z,14.55
2022-11-19T19:01:56.566Z,14.38
2022-11-19T19:07:00.403Z,19.65
2022-11-19T19:12:19.175Z,14.75
2022-11-19T19:17:24.216Z,28.77
2022-11-19T19:22:27.895Z,14.45
2022-11-19T19:27:31.879Z,14.30
2022-11-19T19:32:36.957Z,15.90
2022-11-19T19:37:42.474Z,15.27
2022-11-19T19:42:46.165Z,13.13
2022-11-19T19:47:51.298Z,12.93
2022-11-19T19:52:54.997Z,12.13
2022-11-19T19:57:59.949Z,14.02
2022-11-19T20:03:05.267Z,16.20
2022-11-19T20:08:08.900Z,11.55
2022-11-19T20:13:32.088Z,13.10
2022-11-19T20:18:38.242Z,19.65
2022-11-19T20:23:42.735Z,12.33
2022-11-19T20:28:46.963Z,12.50
2022-11-19T20:33:55.802Z,9.60
2022-11-19T20:38:59.587Z,9.68
2022-11-19T20:44:27.506Z,10.68
2022-11-19T20:49:39.859Z,13.30
2022-11-19T20:54:43.577Z,20.65
2022-11-19T20:59:47.227Z,15.05
2022-11-19T21:04:52.344Z,10.00
2022-11-19T21:09:56.871Z,12.10
2022-11-19T21:15:02.068Z,9.63
2022-11-19T21:20:08.575Z,10.90
2022-11-19T21:25:12.698Z,10.48
2022-11-19T21:30:18.596Z,10.18
2022-11-19T21:35:23.736Z,10.20
2022-11-19T21:40:27.552Z,12.65
2022-11-19T21:45:31.347Z,11.05
2022-11-19T21:50:40.389Z,16.63
2022-11-19T21:55:44.604Z,11.50
2022-11-19T22:00:48.369Z,10.93
2022-11-19T22:06:01.464Z,13.90
2022-11-19T22:11:26.381Z,13.40
2022-11-19T22:16:30.734Z,9.35
2022-11-19T22:21:36.373Z,9.40
2022-11-19T22:26:40.129Z,10.93
2022-11-19T22:31:43.806Z,9.82
2022-11-19T22:36:48.814Z,12.05
2022-11-19T22:41:52.653Z,11.80
2022-11-19T22:46:58.605Z,9.57
2022-11-19T22:52:03.847Z,13.32
2022-11-19T22:57:07.740Z,12.23
2022-11-19T23:02:11.377Z,9.85
2022-11-19T23:07:16.478Z,13.38
2022-11-19T23:12:37.449Z,9.82
2022-11-19T23:17:43.398Z,10.88
2022-11-19T23:22:48.407Z,9.20
2022-11-19T23:27:52.122Z,12.40
2022-11-19T23:32:55.774Z,10.40
2022-11-19T23:38:00.858Z,11.45
2022-11-19T23:43:04.819Z,10.93
2022-11-19T23:48:08.767Z,9.48
2022-11-19T23:53:13.866Z,10.93
2022-11-19T23:58:17.532Z,9.38
